sensor_id;sensor_type;location;lat;lon;timestamp;P1;durP1;ratioP1;P2;durP2;ratioP2
80229;SDS011;69540;42.136;24.742;2023-04-25T00:02:32;2.20;;;2.10;;
80229;SDS011;69540;42.136;24.742;2023-04-25T00:05:00;2.03;;;1.92;;
80229;SDS011;69540;42.136;24.742;2023-04-25T00:07:27;1.95;;;1.85;;
80229;SDS011;69540;42.136;24.742;2023-04-25T00:09:52;2.55;;;1.80;;
80229;SDS011;69540;42.136;24.742;2023-04-25T00:12:18;2.20;;;2.10;;
80229;SDS011;69540;42.136;24.742;2023-04-25T00:14:44;2.53;;;2.20;;
80229;SDS011;69540;42.136;24.742;2023-04-25T00:17:10;2.10;;;1.90;;
80229;SDS011;69540;42.136;24.742;2023-04-25T00:19:36;2.10;;;1.92;;
80229;SDS011;69540;42.136;24.742;2023-04-25T00:22:02;2.40;;;2.20;;
80229;SDS011;69540;42.136;24.742;2023-04-25T00:24:28;2.38;;;2.00;;
80229;SDS011;69540;42.136;24.742;2023-04-25T00:26:54;2.17;;;2.08;;
80229;SDS011;69540;42.136;24.742;2023-04-25T00:29:20;2.05;;;1.92;;
80229;SDS011;69540;42.136;24.742;2023-04-25T00:31:46;2.22;;;2.05;;
80229;SDS011;69540;42.136;24.742;2023-04-25T00:34:11;1.90;;;1.80;;
80229;SDS011;69540;42.136;24.742;2023-04-25T00:36:37;2.10;;;2.00;;
80229;SDS011;69540;42.136;24.742;2023-04-25T00:39:03;1.80;;;1.70;;
80229;SDS011;69540;42.136;24.742;2023-04-25T00:41:29;2.03;;;1.92;;
80229;SDS011;69540;42.136;24.742;2023-04-25T00:43:55;1.83;;;1.73;;
80229;SDS011;69540;42.136;24.742;2023-04-25T00:46:22;1.83;;;1.73;;
80229;SDS011;69540;42.136;24.742;2023-04-25T00:48:48;2.00;;;1.90;;
80229;SDS011;69540;42.136;24.742;2023-04-25T00:51:15;1.67;;;1.58;;
80229;SDS011;69540;42.136;24.742;2023-04-25T00:53:44;2.10;;;2.00;;
80229;SDS011;69540;42.136;24.742;2023-04-25T00:56:10;1.90;;;1.80;;
80229;SDS011;69540;42.136;24.742;2023-04-25T00:58:36;2.00;;;1.88;;
80229;SDS011;69540;42.136;24.742;2023-04-25T01:01:03;2.03;;;1.92;;
80229;SDS011;69540;42.136;24.742;2023-04-25T01:03:29;2.50;;;2.30;;
80229;SDS011;69540;42.136;24.742;2023-04-25T01:05:57;1.90;;;1.80;;
80229;SDS011;69540;42.136;24.742;2023-04-25T01:08:23;1.83;;;1.73;;
80229;SDS011;69540;42.136;24.742;2023-04-25T01:17:23;1.98;;;1.88;;
80229;SDS011;69540;42.136;24.742;2023-04-25T01:19:49;1.90;;;1.80;;
80229;SDS011;69540;42.136;24.742;2023-04-25T01:22:15;2.00;;;1.90;;
80229;SDS011;69540;42.136;24.742;2023-04-25T01:24:42;1.95;;;1.85;;
80229;SDS011;69540;42.136;24.742;2023-04-25T01:27:08;1.90;;;1.80;;
80229;SDS011;69540;42.136;24.742;2023-04-25T01:29:34;1.90;;;1.80;;
80229;SDS011;69540;42.136;24.742;2023-04-25T01:32:01;1.85;;;1.75;;
80229;SDS011;69540;42.136;24.742;2023-04-25T01:34:28;2.03;;;1.92;;
80229;SDS011;69540;42.136;24.742;2023-04-25T01:36:54;1.80;;;1.70;;
80229;SDS011;69540;42.136;24.742;2023-04-25T01:39:20;2.33;;;2.13;;
80229;SDS011;69540;42.136;24.742;2023-04-25T01:41:46;1.80;;;1.70;;
80229;SDS011;69540;42.136;24.742;2023-04-25T01:44:13;1.90;;;1.80;;
80229;SDS011;69540;42.136;24.742;2023-04-25T01:46:39;1.95;;;1.85;;
80229;SDS011;69540;42.136;24.742;2023-04-25T01:49:06;1.70;;;1.60;;
80229;SDS011;69540;42.136;24.742;2023-04-25T01:51:32;1.92;;;1.75;;
80229;SDS011;69540;42.136;24.742;2023-04-25T01:53:57;1.70;;;1.60;;
80229;SDS011;69540;42.136;24.742;2023-04-25T01:56:23;1.80;;;1.70;;
80229;SDS011;69540;42.136;24.742;2023-04-25T01:58:49;1.73;;;1.60;;
80229;SDS011;69540;42.136;24.742;2023-04-25T02:01:15;2.13;;;1.92;;
80229;SDS011;69540;42.136;24.742;2023-04-25T02:03:41;1.90;;;1.80;;
80229;SDS011;69540;42.136;24.742;2023-04-25T02:06:07;1.60;;;1.50;;
80229;SDS011;69540;42.136;24.742;2023-04-25T02:08:32;1.80;;;1.70;;
80229;SDS011;69540;42.136;24.742;2023-04-25T02:10:58;2.00;;;1.90;;
80229;SDS011;69540;42.136;24.742;2023-04-25T02:13:24;1.80;;;1.70;;
80229;SDS011;69540;42.136;24.742;2023-04-25T02:15:49;1.83;;;1.73;;
80229;SDS011;69540;42.136;24.742;2023-04-25T02:18:15;1.88;;;1.77;;
80229;SDS011;69540;42.136;24.742;2023-04-25T02:20:41;1.90;;;1.80;;
80229;SDS011;69540;42.136;24.742;2023-04-25T02:23:07;1.77;;;1.67;;
80229;SDS011;69540;42.136;24.742;2023-04-25T02:25:33;1.70;;;1.60;;
80229;SDS011;69540;42.136;24.742;2023-04-25T02:27:59;1.80;;;1.67;;
80229;SDS011;69540;42.136;24.742;2023-04-25T02:30:24;1.65;;;1.55;;
80229;SDS011;69540;42.136;24.742;2023-04-25T02:32:50;1.73;;;1.63;;
80229;SDS011;69540;42.136;24.742;2023-04-25T02:35:16;2.03;;;1.88;;
80229;SDS011;69540;42.136;24.742;2023-04-25T02:37:42;1.95;;;1.83;;
80229;SDS011;69540;42.136;24.742;2023-04-25T02:40:07;2.08;;;1.80;;
80229;SDS011;69540;42.136;24.742;2023-04-25T02:42:34;1.80;;;1.70;;
80229;SDS011;69540;42.136;24.742;2023-04-25T02:45:00;2.00;;;1.90;;
80229;SDS011;69540;42.136;24.742;2023-04-25T02:47:25;1.95;;;1.75;;
80229;SDS011;69540;42.136;24.742;2023-04-25T02:49:51;1.90;;;1.80;;
80229;SDS011;69540;42.136;24.742;2023-04-25T02:52:17;1.92;;;1.77;;
80229;SDS011;69540;42.136;24.742;2023-04-25T02:54:42;1.60;;;1.50;;
80229;SDS011;69540;42.136;24.742;2023-04-25T02:57:08;1.80;;;1.70;;
80229;SDS011;69540;42.136;24.742;2023-04-25T02:59:34;1.80;;;1.70;;
80229;SDS011;69540;42.136;24.742;2023-04-25T03:02:00;2.25;;;1.63;;
80229;SDS011;69540;42.136;24.742;2023-04-25T03:04:26;2.05;;;1.70;;
80229;SDS011;69540;42.136;24.742;2023-04-25T03:06:52;1.80;;;1.70;;
80229;SDS011;69540;42.136;24.742;2023-04-25T03:09:18;1.60;;;1.50;;
80229;SDS011;69540;42.136;24.742;2023-04-25T03:11:45;1.50;;;1.40;;
80229;SDS011;69540;42.136;24.742;2023-04-25T03:14:11;1.88;;;1.77;;
80229;SDS011;69540;42.136;24.742;2023-04-25T03:16:37;1.55;;;1.45;;
80229;SDS011;69540;42.136;24.742;2023-04-25T03:19:03;1.48;;;1.40;;
80229;SDS011;69540;42.136;24.742;2023-04-25T03:21:30;1.70;;;1.60;;
80229;SDS011;69540;42.136;24.742;2023-04-25T03:29:56;1.60;;;1.50;;
80229;SDS011;69540;42.136;24.742;2023-04-25T03:32:22;1.58;;;1.48;;
80229;SDS011;69540;42.136;24.742;2023-04-25T03:34:47;1.80;;;1.50;;
80229;SDS011;69540;42.136;24.742;2023-04-25T03:37:13;1.60;;;1.50;;
80229;SDS011;69540;42.136;24.742;2023-04-25T03:39:38;1.80;;;1.70;;
80229;SDS011;69540;42.136;24.742;2023-04-25T03:42:04;1.88;;;1.77;;
80229;SDS011;69540;42.136;24.742;2023-04-25T03:44:30;1.85;;;1.75;;
80229;SDS011;69540;42.136;24.742;2023-04-25T03:46:56;1.60;;;1.50;;
80229;SDS011;69540;42.136;24.742;2023-04-25T03:49:21;1.80;;;1.70;;
80229;SDS011;69540;42.136;24.742;2023-04-25T03:51:47;1.65;;;1.55;;
80229;SDS011;69540;42.136;24.742;2023-04-25T03:54:12;1.85;;;1.60;;
80229;SDS011;69540;42.136;24.742;2023-04-25T03:56:38;1.75;;;1.65;;
80229;SDS011;69540;42.136;24.742;2023-04-25T03:59:04;4.60;;;2.63;;
80229;SDS011;69540;42.136;24.742;2023-04-25T04:01:29;2.95;;;2.75;;
80229;SDS011;69540;42.136;24.742;2023-04-25T04:03:55;2.85;;;2.65;;
80229;SDS011;69540;42.136;24.742;2023-04-25T04:06:21;2.85;;;2.65;;
80229;SDS011;69540;42.136;24.742;2023-04-25T04:08:46;2.58;;;2.38;;
80229;SDS011;69540;42.136;24.742;2023-04-25T04:11:12;3.13;;;2.60;;
80229;SDS011;69540;42.136;24.742;2023-04-25T04:13:37;3.15;;;2.53;;
80229;SDS011;69540;42.136;24.742;2023-04-25T04:16:03;2.67;;;2.47;;
80229;SDS011;69540;42.136;24.742;2023-04-25T04:18:29;3.00;;;2.80;;
80229;SDS011;69540;42.136;24.742;2023-04-25T04:20:55;5.20;;;3.25;;
80229;SDS011;69540;42.136;24.742;2023-04-25T04:23:23;4.00;;;3.42;;
80229;SDS011;69540;42.136;24.742;2023-04-25T04:25:48;4.88;;;4.28;;
80229;SDS011;69540;42.136;24.742;2023-04-25T04:28:14;7.72;;;4.28;;
80229;SDS011;69540;42.136;24.742;2023-04-25T04:30:41;6.25;;;4.18;;
80229;SDS011;69540;42.136;24.742;2023-04-25T04:33:07;6.18;;;4.95;;
80229;SDS011;69540;42.136;24.742;2023-04-25T04:35:34;6.07;;;5.00;;
80229;SDS011;69540;42.136;24.742;2023-04-25T04:37:59;6.35;;;5.00;;
80229;SDS011;69540;42.136;24.742;2023-04-25T04:40:25;5.60;;;4.95;;
80229;SDS011;69540;42.136;24.742;2023-04-25T04:42:51;8.85;;;5.05;;
80229;SDS011;69540;42.136;24.742;2023-04-25T04:45:18;10.55;;;5.00;;
80229;SDS011;69540;42.136;24.742;2023-04-25T04:48:01;9.27;;;5.00;;
80229;SDS011;69540;42.136;24.742;2023-04-25T04:54:01;7.28;;;5.22;;
80229;SDS011;69540;42.136;24.742;2023-04-25T04:56:28;8.13;;;5.05;;
80229;SDS011;69540;42.136;24.742;2023-04-25T04:58:56;6.55;;;5.00;;
80229;SDS011;69540;42.136;24.742;2023-04-25T05:01:25;7.28;;;5.38;;
80229;SDS011;69540;42.136;24.742;2023-04-25T05:03:51;8.13;;;5.32;;
80229;SDS011;69540;42.136;24.742;2023-04-25T05:06:20;6.50;;;5.50;;
80229;SDS011;69540;42.136;24.742;2023-04-25T05:08:46;8.20;;;5.05;;
80229;SDS011;69540;42.136;24.742;2023-04-25T05:11:11;6.55;;;5.85;;
80229;SDS011;69540;42.136;24.742;2023-04-25T05:13:37;6.70;;;5.75;;
80229;SDS011;69540;42.136;24.742;2023-04-25T05:23:15;7.55;;;4.88;;
80229;SDS011;69540;42.136;24.742;2023-04-25T05:26:06;7.07;;;4.95;;
80229;SDS011;69540;42.136;24.742;2023-04-25T05:28:38;5.75;;;4.57;;
80229;SDS011;69540;42.136;24.742;2023-04-25T05:31:07;5.47;;;4.40;;
80229;SDS011;69540;42.136;24.742;2023-04-25T05:33:34;6.68;;;4.57;;
80229;SDS011;69540;42.136;24.742;2023-04-25T05:36:00;6.32;;;4.35;;
80229;SDS011;69540;42.136;24.742;2023-04-25T05:41:41;5.30;;;4.45;;
80229;SDS011;69540;42.136;24.742;2023-04-25T05:44:07;4.90;;;4.40;;
80229;SDS011;69540;42.136;24.742;2023-04-25T05:46:33;6.95;;;4.32;;
80229;SDS011;69540;42.136;24.742;2023-04-25T05:48:58;7.78;;;4.35;;
80229;SDS011;69540;42.136;24.742;2023-04-25T05:51:24;4.95;;;4.25;;
80229;SDS011;69540;42.136;24.742;2023-04-25T05:53:50;6.82;;;4.15;;
80229;SDS011;69540;42.136;24.742;2023-04-25T05:56:16;6.13;;;4.30;;
80229;SDS011;69540;42.136;24.742;2023-04-25T05:59:01;6.72;;;4.75;;
80229;SDS011;69540;42.136;24.742;2023-04-25T06:04:20;6.82;;;3.90;;
80229;SDS011;69540;42.136;24.742;2023-04-25T06:06:45;6.25;;;4.15;;
80229;SDS011;69540;42.136;24.742;2023-04-25T06:09:14;4.22;;;3.83;;
80229;SDS011;69540;42.136;24.742;2023-04-25T06:11:40;4.22;;;3.80;;
80229;SDS011;69540;42.136;24.742;2023-04-25T06:14:11;6.03;;;4.15;;
80229;SDS011;69540;42.136;24.742;2023-04-25T06:16:40;7.80;;;4.10;;
80229;SDS011;69540;42.136;24.742;2023-04-25T06:22:14;6.00;;;3.65;;
80229;SDS011;69540;42.136;24.742;2023-04-25T06:24:39;3.88;;;3.30;;
80229;SDS011;69540;42.136;24.742;2023-04-25T06:27:11;5.68;;;3.50;;
80229;SDS011;69540;42.136;24.742;2023-04-25T06:29:58;5.05;;;3.63;;
80229;SDS011;69540;42.136;24.742;2023-04-25T06:32:23;5.20;;;3.45;;
80229;SDS011;69540;42.136;24.742;2023-04-25T06:34:57;7.35;;;3.30;;
80229;SDS011;69540;42.136;24.742;2023-04-25T06:37:53;5.50;;;3.45;;
80229;SDS011;69540;42.136;24.742;2023-04-25T06:41:07;6.38;;;3.30;;
80229;SDS011;69540;42.136;24.742;2023-04-25T06:44:01;4.18;;;3.28;;
80229;SDS011;69540;42.136;24.742;2023-04-25T06:46:26;9.95;;;3.38;;
80229;SDS011;69540;42.136;24.742;2023-04-25T06:48:52;6.40;;;3.30;;
80229;SDS011;69540;42.136;24.742;2023-04-25T06:51:18;3.92;;;3.20;;
80229;SDS011;69540;42.136;24.742;2023-04-25T06:53:43;6.68;;;2.92;;
80229;SDS011;69540;42.136;24.742;2023-04-25T06:56:09;4.30;;;3.30;;
80229;SDS011;69540;42.136;24.742;2023-04-25T06:58:41;4.78;;;2.95;;
80229;SDS011;69540;42.136;24.742;2023-04-25T07:01:30;3.10;;;2.80;;
80229;SDS011;69540;42.136;24.742;2023-04-25T07:04:09;4.15;;;3.20;;
80229;SDS011;69540;42.136;24.742;2023-04-25T07:07:01;4.35;;;2.92;;
80229;SDS011;69540;42.136;24.742;2023-04-25T07:09:28;3.30;;;2.95;;
80229;SDS011;69540;42.136;24.742;2023-04-25T07:11:57;4.47;;;3.30;;
80229;SDS011;69540;42.136;24.742;2023-04-25T07:14:27;5.45;;;3.28;;
80229;SDS011;69540;42.136;24.742;2023-04-25T07:17:15;4.68;;;3.03;;
80229;SDS011;69540;42.136;24.742;2023-04-25T07:31:21;3.55;;;2.55;;
80229;SDS011;69540;42.136;24.742;2023-04-25T07:34:10;8.50;;;3.20;;
80229;SDS011;69540;42.136;24.742;2023-04-25T07:40:25;3.95;;;3.28;;
80229;SDS011;69540;42.136;24.742;2023-04-25T07:43:39;5.45;;;3.03;;
80229;SDS011;69540;42.136;24.742;2023-04-25T07:49:23;5.13;;;2.83;;
80229;SDS011;69540;42.136;24.742;2023-04-25T07:57:34;7.85;;;2.72;;
80229;SDS011;69540;42.136;24.742;2023-04-25T08:00:00;4.60;;;2.97;;
80229;SDS011;69540;42.136;24.742;2023-04-25T08:05:31;4.95;;;2.90;;
80229;SDS011;69540;42.136;24.742;2023-04-25T08:08:02;5.55;;;2.65;;
80229;SDS011;69540;42.136;24.742;2023-04-25T08:13:44;3.70;;;2.95;;
80229;SDS011;69540;42.136;24.742;2023-04-25T08:16:10;2.88;;;2.53;;
80229;SDS011;69540;42.136;24.742;2023-04-25T08:18:35;3.17;;;2.67;;
80229;SDS011;69540;42.136;24.742;2023-04-25T08:21:01;7.82;;;2.95;;
80229;SDS011;69540;42.136;24.742;2023-04-25T08:23:27;4.07;;;2.60;;
80229;SDS011;69540;42.136;24.742;2023-04-25T08:26:06;3.97;;;2.85;;
80229;SDS011;69540;42.136;24.742;2023-04-25T08:28:38;6.25;;;2.65;;
80229;SDS011;69540;42.136;24.742;2023-04-25T08:31:04;5.05;;;2.80;;
80229;SDS011;69540;42.136;24.742;2023-04-25T08:33:55;3.00;;;2.70;;
80229;SDS011;69540;42.136;24.742;2023-04-25T08:36:30;6.97;;;2.60;;
80229;SDS011;69540;42.136;24.742;2023-04-25T08:39:07;3.38;;;2.55;;
80229;SDS011;69540;42.136;24.742;2023-04-25T08:41:33;7.40;;;2.72;;
80229;SDS011;69540;42.136;24.742;2023-04-25T08:44:03;3.55;;;2.70;;
80229;SDS011;69540;42.136;24.742;2023-04-25T08:46:36;3.88;;;2.35;;
80229;SDS011;69540;42.136;24.742;2023-04-25T08:49:07;3.95;;;2.58;;
80229;SDS011;69540;42.136;24.742;2023-04-25T08:51:43;4.10;;;2.47;;
80229;SDS011;69540;42.136;24.742;2023-04-25T08:54:12;3.97;;;2.30;;
80229;SDS011;69540;42.136;24.742;2023-04-25T08:56:48;3.72;;;2.72;;
80229;SDS011;69540;42.136;24.742;2023-04-25T08:59:14;5.60;;;2.83;;
80229;SDS011;69540;42.136;24.742;2023-04-25T09:01:40;6.00;;;3.15;;
80229;SDS011;69540;42.136;24.742;2023-04-25T09:04:06;2.75;;;2.55;;
80229;SDS011;69540;42.136;24.742;2023-04-25T09:06:32;4.22;;;2.22;;
80229;SDS011;69540;42.136;24.742;2023-04-25T09:09:07;3.25;;;2.20;;
80229;SDS011;69540;42.136;24.742;2023-04-25T09:11:34;3.90;;;2.85;;
80229;SDS011;69540;42.136;24.742;2023-04-25T09:19:25;2.45;;;2.15;;
80229;SDS011;69540;42.136;24.742;2023-04-25T09:22:12;3.03;;;2.15;;
80229;SDS011;69540;42.136;24.742;2023-04-25T09:24:55;5.60;;;2.30;;
80229;SDS011;69540;42.136;24.742;2023-04-25T09:28:07;2.95;;;2.40;;
80229;SDS011;69540;42.136;24.742;2023-04-25T09:33:36;2.65;;;2.13;;
80229;SDS011;69540;42.136;24.742;2023-04-25T09:38:45;3.97;;;2.35;;
80229;SDS011;69540;42.136;24.742;2023-04-25T09:41:54;6.15;;;2.47;;
80229;SDS011;69540;42.136;24.742;2023-04-25T09:44:44;7.35;;;2.42;;
80229;SDS011;69540;42.136;24.742;2023-04-25T09:47:14;2.28;;;2.08;;
80229;SDS011;69540;42.136;24.742;2023-04-25T09:56:21;2.75;;;2.15;;
80229;SDS011;69540;42.136;24.742;2023-04-25T09:58:48;2.42;;;2.10;;
80229;SDS011;69540;42.136;24.742;2023-04-25T10:01:18;2.33;;;2.13;;
80229;SDS011;69540;42.136;24.742;2023-04-25T10:03:56;5.90;;;2.40;;
80229;SDS011;69540;42.136;24.742;2023-04-25T10:06:56;2.60;;;2.10;;
80229;SDS011;69540;42.136;24.742;2023-04-25T10:09:25;2.50;;;2.30;;
80229;SDS011;69540;42.136;24.742;2023-04-25T10:15:26;3.03;;;2.40;;
80229;SDS011;69540;42.136;24.742;2023-04-25T10:18:02;4.30;;;2.03;;
80229;SDS011;69540;42.136;24.742;2023-04-25T10:21:35;3.65;;;2.15;;
80229;SDS011;69540;42.136;24.742;2023-04-25T10:24:15;3.28;;;2.30;;
80229;SDS011;69540;42.136;24.742;2023-04-25T10:29:38;3.13;;;2.17;;
80229;SDS011;69540;42.136;24.742;2023-04-25T10:32:12;3.25;;;2.15;;
80229;SDS011;69540;42.136;24.742;2023-04-25T10:35:09;2.50;;;2.30;;
80229;SDS011;69540;42.136;24.742;2023-04-25T10:37:36;3.33;;;2.03;;
80229;SDS011;69540;42.136;24.742;2023-04-25T10:40:14;3.00;;;2.40;;
80229;SDS011;69540;42.136;24.742;2023-04-25T10:42:48;2.78;;;2.20;;
80229;SDS011;69540;42.136;24.742;2023-04-25T10:45:13;2.08;;;1.88;;
80229;SDS011;69540;42.136;24.742;2023-04-25T10:47:45;3.10;;;2.10;;
80229;SDS011;69540;42.136;24.742;2023-04-25T10:53:16;2.40;;;2.00;;
80229;SDS011;69540;42.136;24.742;2023-04-25T10:55:51;3.30;;;1.95;;
80229;SDS011;69540;42.136;24.742;2023-04-25T10:58:36;2.30;;;1.98;;
80229;SDS011;69540;42.136;24.742;2023-04-25T11:04:51;3.03;;;2.03;;
80229;SDS011;69540;42.136;24.742;2023-04-25T11:10:40;3.92;;;2.30;;
80229;SDS011;69540;42.136;24.742;2023-04-25T11:13:29;3.22;;;1.92;;
80229;SDS011;69540;42.136;24.742;2023-04-25T11:15:57;2.80;;;2.08;;
80229;SDS011;69540;42.136;24.742;2023-04-25T11:18:25;2.50;;;2.25;;
80229;SDS011;69540;42.136;24.742;2023-04-25T11:20:59;4.28;;;2.10;;
80229;SDS011;69540;42.136;24.742;2023-04-25T11:23:35;2.10;;;1.90;;
80229;SDS011;69540;42.136;24.742;2023-04-25T11:26:02;4.22;;;2.00;;
80229;SDS011;69540;42.136;24.742;2023-04-25T11:28:28;2.35;;;2.05;;
80229;SDS011;69540;42.136;24.742;2023-04-25T11:30:55;2.50;;;1.80;;
80229;SDS011;69540;42.136;24.742;2023-04-25T11:33:23;4.43;;;2.03;;
80229;SDS011;69540;42.136;24.742;2023-04-25T11:35:52;5.55;;;1.77;;
80229;SDS011;69540;42.136;24.742;2023-04-25T11:38:47;2.67;;;1.92;;
80229;SDS011;69540;42.136;24.742;2023-04-25T11:41:12;3.75;;;2.15;;
80229;SDS011;69540;42.136;24.742;2023-04-25T11:43:38;3.53;;;1.90;;
80229;SDS011;69540;42.136;24.742;2023-04-25T11:46:10;2.90;;;1.90;;
80229;SDS011;69540;42.136;24.742;2023-04-25T11:48:54;5.28;;;2.30;;
80229;SDS011;69540;42.136;24.742;2023-04-25T11:51:22;2.70;;;1.95;;
80229;SDS011;69540;42.136;24.742;2023-04-25T11:54:19;2.67;;;1.92;;
80229;SDS011;69540;42.136;24.742;2023-04-25T11:56:45;3.92;;;2.08;;
80229;SDS011;69540;42.136;24.742;2023-04-25T11:59:11;4.53;;;2.17;;
80229;SDS011;69540;42.136;24.742;2023-04-25T12:01:38;2.20;;;2.00;;
80229;SDS011;69540;42.136;24.742;2023-04-25T12:04:10;5.32;;;2.13;;
80229;SDS011;69540;42.136;24.742;2023-04-25T12:07:02;4.25;;;2.05;;
80229;SDS011;69540;42.136;24.742;2023-04-25T12:09:50;3.00;;;2.30;;
80229;SDS011;69540;42.136;24.742;2023-04-25T12:12:17;2.17;;;1.98;;
80229;SDS011;69540;42.136;24.742;2023-04-25T12:14:54;2.60;;;2.25;;
80229;SDS011;69540;42.136;24.742;2023-04-25T12:18:07;2.13;;;2.03;;
80229;SDS011;69540;42.136;24.742;2023-04-25T12:20:35;2.72;;;2.13;;
80229;SDS011;69540;42.136;24.742;2023-04-25T12:23:49;2.88;;;2.00;;
80229;SDS011;69540;42.136;24.742;2023-04-25T12:26:07;5.55;;;2.20;;
80229;SDS011;69540;42.136;24.742;2023-04-25T12:28:33;2.20;;;2.00;;
80229;SDS011;69540;42.136;24.742;2023-04-25T12:31:08;3.25;;;1.92;;
80229;SDS011;69540;42.136;24.742;2023-04-25T12:33:36;2.33;;;1.95;;
80229;SDS011;69540;42.136;24.742;2023-04-25T12:36:03;5.88;;;2.20;;
80229;SDS011;69540;42.136;24.742;2023-04-25T12:38:37;5.18;;;2.05;;
80229;SDS011;69540;42.136;24.742;2023-04-25T12:41:16;2.38;;;1.73;;
80229;SDS011;69540;42.136;24.742;2023-04-25T12:43:57;2.35;;;2.15;;
80229;SDS011;69540;42.136;24.742;2023-04-25T12:46:35;2.67;;;1.83;;
80229;SDS011;69540;42.136;24.742;2023-04-25T12:49:04;2.95;;;2.00;;
80229;SDS011;69540;42.136;24.742;2023-04-25T12:51:32;3.42;;;2.08;;
80229;SDS011;69540;42.136;24.742;2023-04-25T12:53:58;2.47;;;1.98;;
80229;SDS011;69540;42.136;24.742;2023-04-25T13:05:51;3.63;;;2.40;;
80229;SDS011;69540;42.136;24.742;2023-04-25T13:11:17;3.67;;;2.10;;
80229;SDS011;69540;42.136;24.742;2023-04-25T13:14:13;4.47;;;2.00;;
80229;SDS011;69540;42.136;24.742;2023-04-25T13:16:57;3.33;;;2.28;;
80229;SDS011;69540;42.136;24.742;2023-04-25T13:19:36;2.92;;;2.17;;
80229;SDS011;69540;42.136;24.742;2023-04-25T13:22:07;2.10;;;2.00;;
80229;SDS011;69540;42.136;24.742;2023-04-25T13:27:48;3.40;;;2.17;;
80229;SDS011;69540;42.136;24.742;2023-04-25T13:30:13;2.85;;;2.20;;
80229;SDS011;69540;42.136;24.742;2023-04-25T13:32:39;2.60;;;2.10;;
80229;SDS011;69540;42.136;24.742;2023-04-25T13:35:12;2.25;;;1.95;;
80229;SDS011;69540;42.136;24.742;2023-04-25T13:38:12;1.80;;;1.70;;
80229;SDS011;69540;42.136;24.742;2023-04-25T13:40:38;2.75;;;2.08;;
80229;SDS011;69540;42.136;24.742;2023-04-25T13:43:22;5.35;;;2.15;;
80229;SDS011;69540;42.136;24.742;2023-04-25T13:49:11;1.80;;;1.67;;
80229;SDS011;69540;42.136;24.742;2023-04-25T13:51:40;1.77;;;1.67;;
80229;SDS011;69540;42.136;24.742;2023-04-25T13:57:10;2.10;;;1.85;;
80229;SDS011;69540;42.136;24.742;2023-04-25T13:59:36;4.53;;;1.85;;
80229;SDS011;69540;42.136;24.742;2023-04-25T14:02:20;2.08;;;1.80;;
80229;SDS011;69540;42.136;24.742;2023-04-25T14:11:36;3.42;;;1.92;;
80229;SDS011;69540;42.136;24.742;2023-04-25T14:14:02;8.18;;;1.85;;
80229;SDS011;69540;42.136;24.742;2023-04-25T14:16:46;4.13;;;1.95;;
80229;SDS011;69540;42.136;24.742;2023-04-25T14:19:37;2.00;;;1.90;;
80229;SDS011;69540;42.136;24.742;2023-04-25T14:22:03;1.70;;;1.60;;
80229;SDS011;69540;42.136;24.742;2023-04-25T14:25:28;2.28;;;1.77;;
80229;SDS011;69540;42.136;24.742;2023-04-25T14:28:10;3.15;;;2.10;;
80229;SDS011;69540;42.136;24.742;2023-04-25T14:30:35;1.75;;;1.65;;
80229;SDS011;69540;42.136;24.742;2023-04-25T14:33:01;3.05;;;1.73;;
80229;SDS011;69540;42.136;24.742;2023-04-25T14:38:12;2.65;;;1.80;;
80229;SDS011;69540;42.136;24.742;2023-04-25T14:40:37;4.10;;;1.70;;
80229;SDS011;69540;42.136;24.742;2023-04-25T14:43:04;2.03;;;1.48;;
80229;SDS011;69540;42.136;24.742;2023-04-25T14:45:30;2.38;;;1.98;;
80229;SDS011;69540;42.136;24.742;2023-04-25T14:48:03;2.25;;;1.77;;
80229;SDS011;69540;42.136;24.742;2023-04-25T14:50:39;1.80;;;1.70;;
80229;SDS011;69540;42.136;24.742;2023-04-25T14:53:11;2.05;;;1.70;;
80229;SDS011;69540;42.136;24.742;2023-04-25T14:55:37;4.57;;;1.83;;
80229;SDS011;69540;42.136;24.742;2023-04-25T14:58:25;2.22;;;1.90;;
80229;SDS011;69540;42.136;24.742;2023-04-25T15:01:13;1.73;;;1.63;;
80229;SDS011;69540;42.136;24.742;2023-04-25T15:03:39;1.90;;;1.80;;
80229;SDS011;69540;42.136;24.742;2023-04-25T15:06:05;2.85;;;1.60;;
80229;SDS011;69540;42.136;24.742;2023-04-25T15:08:31;1.75;;;1.65;;
80229;SDS011;69540;42.136;24.742;2023-04-25T15:10:57;5.20;;;1.60;;
80229;SDS011;69540;42.136;24.742;2023-04-25T15:13:23;1.90;;;1.65;;
80229;SDS011;69540;42.136;24.742;2023-04-25T15:15:56;1.77;;;1.50;;
80229;SDS011;69540;42.136;24.742;2023-04-25T15:20:54;1.58;;;1.48;;
80229;SDS011;69540;42.136;24.742;2023-04-25T15:23:32;2.22;;;1.50;;
80229;SDS011;69540;42.136;24.742;2023-04-25T15:25:58;2.20;;;1.42;;
80229;SDS011;69540;42.136;24.742;2023-04-25T15:28:29;2.05;;;1.60;;
80229;SDS011;69540;42.136;24.742;2023-04-25T15:30:59;1.98;;;1.55;;
80229;SDS011;69540;42.136;24.742;2023-04-25T15:33:24;1.83;;;1.30;;
80229;SDS011;69540;42.136;24.742;2023-04-25T15:35:50;2.85;;;1.52;;
80229;SDS011;69540;42.136;24.742;2023-04-25T15:44:30;1.42;;;1.30;;
80229;SDS011;69540;42.136;24.742;2023-04-25T15:49:52;2.85;;;1.40;;
80229;SDS011;69540;42.136;24.742;2023-04-25T15:52:29;2.40;;;1.50;;
80229;SDS011;69540;42.136;24.742;2023-04-25T15:55:03;2.33;;;1.10;;
80229;SDS011;69540;42.136;24.742;2023-04-25T15:57:29;1.55;;;1.45;;
80229;SDS011;69540;42.136;24.742;2023-04-25T15:59:56;1.67;;;1.15;;
80229;SDS011;69540;42.136;24.742;2023-04-25T16:02:22;3.00;;;1.58;;
80229;SDS011;69540;42.136;24.742;2023-04-25T16:04:48;2.67;;;1.23;;
80229;SDS011;69540;42.136;24.742;2023-04-25T16:07:13;3.03;;;1.33;;
80229;SDS011;69540;42.136;24.742;2023-04-25T16:09:39;1.25;;;1.15;;
80229;SDS011;69540;42.136;24.742;2023-04-25T16:12:06;1.35;;;1.02;;
80229;SDS011;69540;42.136;24.742;2023-04-25T16:14:32;1.52;;;1.17;;
80229;SDS011;69540;42.136;24.742;2023-04-25T16:16:58;1.10;;;1.10;;
80229;SDS011;69540;42.136;24.742;2023-04-25T16:19:24;1.42;;;1.20;;
80229;SDS011;69540;42.136;24.742;2023-04-25T16:21:50;1.10;;;1.10;;
80229;SDS011;69540;42.136;24.742;2023-04-25T16:24:16;2.80;;;1.30;;
80229;SDS011;69540;42.136;24.742;2023-04-25T16:26:42;1.40;;;1.30;;
80229;SDS011;69540;42.136;24.742;2023-04-25T16:29:08;2.13;;;1.05;;
80229;SDS011;69540;42.136;24.742;2023-04-25T16:31:34;1.42;;;1.10;;
80229;SDS011;69540;42.136;24.742;2023-04-25T16:34:01;1.77;;;1.38;;
80229;SDS011;69540;42.136;24.742;2023-04-25T16:36:27;1.70;;;1.00;;
80229;SDS011;69540;42.136;24.742;2023-04-25T16:38:56;1.40;;;1.27;;
80229;SDS011;69540;42.136;24.742;2023-04-25T16:44:27;3.15;;;1.30;;
80229;SDS011;69540;42.136;24.742;2023-04-25T16:47:11;0.90;;;0.90;;
80229;SDS011;69540;42.136;24.742;2023-04-25T16:50:04;1.10;;;1.00;;
80229;SDS011;69540;42.136;24.742;2023-04-25T16:52:46;2.17;;;1.17;;
80229;SDS011;69540;42.136;24.742;2023-04-25T16:55:11;1.08;;;1.00;;
80229;SDS011;69540;42.136;24.742;2023-04-25T16:57:37;1.23;;;1.10;;
80229;SDS011;69540;42.136;24.742;2023-04-25T17:00:03;0.98;;;0.93;;
80229;SDS011;69540;42.136;24.742;2023-04-25T17:02:30;3.60;;;1.23;;
80229;SDS011;69540;42.136;24.742;2023-04-25T17:04:56;1.98;;;1.05;;
80229;SDS011;69540;42.136;24.742;2023-04-25T17:07:21;1.33;;;1.23;;
80229;SDS011;69540;42.136;24.742;2023-04-25T17:09:49;1.20;;;1.10;;
80229;SDS011;69540;42.136;24.742;2023-04-25T17:12:15;0.82;;;0.82;;
80229;SDS011;69540;42.136;24.742;2023-04-25T17:14:44;0.80;;;0.80;;
80229;SDS011;69540;42.136;24.742;2023-04-25T17:17:11;0.90;;;0.90;;
80229;SDS011;69540;42.136;24.742;2023-04-25T17:19:37;3.83;;;1.20;;